• Join FlightAware (Why Join?)
  • Login
  • US Flag 
05:00PM EDT


 

Airport Tracker/Info


-or-


 

Live Flight TrackerFlight Track Log ✈ JST677 ✈ 17-May-2013 ✈ YPDN / DRW - YMML / MEL

Flight Track Log - Related Links

Times and Time Zones

All times are in EDT time to prevent confusion due to time zone crossing. See the JST677 flight status page for this flight to view local times or setup timezone preferences in your user account.

Time Position Orientation Groundspeed Altitude Reporting Facility
EDT Latitude Longitude Course Direction KTS MPH feet Rate Location/Type
01:02PM -12.4190 130.8930 109° East 167 192 700  Level FlightAware
01:03PM -12.4270 130.9180 108° East 188 216 1,600 1,260 Climbing FlightAware
01:03PM -12.4323 130.9330 108° East 179 206 1,700 720 Climbing Aus ATC (RADAR)
01:03PM -12.4350 130.9410 108° East 219 252 1,900 1,200 Climbing FlightAware
01:04PM -12.4460 130.9740 109° East 263 303 2,500 1,740 Climbing FlightAware
01:04PM -12.4588 130.9972 109° East 249 287 3,400 3,000 Climbing Aus ATC (RADAR)
01:04PM -12.4690 131.0030 109° East 269 310 4,000 3,420 Climbing FlightAware
01:04PM -12.4790 131.0060 164° South 271 312 4,500 3,000 Climbing FlightAware
01:05PM -12.5170 131.0080 177° South 276 318 6,000 2,880 Climbing FlightAware
01:05PM -12.5467 131.0109 177° South 266 306 6,900 2,580 Climbing Aus ATC (RADAR)
01:05PM -12.5580 131.0120 177° South 284 327 7,300 2,400 Climbing FlightAware
01:06PM -12.5880 131.0190 167° South 292 336 8,300 2,160 Climbing FlightAware
01:06PM -12.6204 131.0416 167° South 288 331 9,100 2,160 Climbing Aus ATC (RADAR)
01:06PM -12.6240 131.0440 167° South 302 348 9,400 1,860 Climbing FlightAware
01:07PM -12.6710 131.0760 146° Southeast 324 373 10,500 1,260 Climbing FlightAware
01:07PM -12.7034 131.0894 146° Southeast 316 364 10,700 900 Climbing Aus ATC (RADAR)
01:08PM -12.7410 131.1030 146° Southeast 366 421 11,200 1,740 Climbing FlightAware
01:08PM -12.8059 131.1267 146° Southeast 351 404 12,600 1,920 Climbing Aus ATC (RADAR)
01:08PM -12.8030 131.1260 146° Southeast 371 427 12,500 2,100 Descending FlightAware
01:09PM -12.8700 131.1520 159° South 376 433 14,000 1,980 Climbing FlightAware
01:09PM -12.9047 131.1650 159° South 364 419 14,500 1,440 Climbing Aus ATC (RADAR)
01:10PM -12.9430 131.1800 159° South 387 445 15,100 1,560 Climbing FlightAware
01:10PM -13.0145 131.2066 159° South 378 435 16,200 1,620 Climbing Aus ATC (RADAR)
01:10PM -13.0110 131.2060 159° South 397 457 16,200 1,440 Level FlightAware
01:11PM -13.0890 131.2360 159° South 404 465 17,300 1,440 Climbing FlightAware
01:11PM -13.1290 131.2501 159° South 395 455 17,800 1,500 Climbing Aus ATC (RADAR)
01:12PM -13.1630 131.2640 159° South 413 475 18,300 1,380 Climbing FlightAware
01:13PM -13.2410 131.2940 159° South 418 481 19,300 1,320 Climbing FlightAware
01:13PM -13.3170 131.3230 160° South 425 489 20,200 1,260 Climbing FlightAware
01:14PM -13.3573 131.3373 160° South 416 479 20,600 1,200 Climbing Aus ATC (RADAR)
01:14PM -13.3920 131.3520 160° South 432 497 21,000 1,260 Climbing FlightAware
01:15PM -13.4780 131.3840 160° South 433 498 22,000 1,200 Climbing FlightAware
01:15PM -13.5520 131.4130 159° South 438 504 22,700 840 Climbing FlightAware
01:16PM -13.6226 131.4377 159° South 435 501 23,100 660 Climbing Aus ATC (RADAR)
01:16PM -13.6370 131.4450 159° South 447 514 23,200 900 Climbing FlightAware
01:17PM -13.7180 131.4760 160° South 452 520 23,900 900 Climbing FlightAware
01:17PM -13.7960 131.5060 160° South 459 528 24,400 780 Climbing FlightAware
01:18PM -13.8796 131.5356 160° South 451 519 25,000 900 Climbing Aus ATC (RADAR)
01:18PM -13.8830 131.5400 160° South 463 533 25,100 900 Climbing FlightAware
01:19PM -13.9690 131.5720 160° South 469 540 25,700 960 Climbing FlightAware
01:19PM -14.0113 131.5871 160° South 458 527 26,100 1,020 Climbing Aus ATC (RADAR)
01:19PM -14.0480 131.6030 160° South 468 539 26,400 780 Climbing FlightAware
01:20PM -14.1337 131.6340 160° South 461 531 26,900 900 Climbing Aus ATC (RADAR)
01:20PM -14.1430 131.6390 160° South 471 542 27,100 1,020 Climbing FlightAware
01:21PM -14.2180 131.6680 159° South 469 540 27,700 840 Climbing FlightAware
01:21PM -14.2769 131.6894 159° South 461 531 28,000 900 Climbing Aus ATC (RADAR)
01:22PM -14.3050 131.7020 159° South 472 543 28,300 960 Climbing FlightAware
01:22PM -14.3999 131.7362 159° South 461 531 29,000 900 Climbing Aus ATC (RADAR)
01:22PM -14.3960 131.7370 159° South 470 541 29,000 900 Level FlightAware
01:23PM -14.4890 131.7730 159° South 468 539 29,700 840 Climbing FlightAware
01:23PM -14.5322 131.7878 159° South 459 528 29,900 720 Climbing Aus ATC (RADAR)
01:24PM -14.5700 131.8040 159° South 468 539 30,200 780 Climbing FlightAware
01:24PM -14.6510 131.8360 159° South 468 539 30,700 600 Climbing FlightAware
01:25PM -14.7420 131.8710 160° South 470 541 31,100 660 Climbing FlightAware
01:26PM -14.7970 131.8896 160° South 459 528 31,500 1,020 Climbing Aus ATC (RADAR)
01:26PM -14.8260 131.9030 160° South 465 535 31,800 840 Climbing FlightAware
01:26PM -14.9050 131.9340 159° South 467 537 32,300 840 Climbing FlightAware
01:27PM -14.9970 131.9700 159° South 463 533 33,000 600 Climbing FlightAware
01:28PM -15.0491 131.9878 159° South 453 521 33,000  Level Aus ATC (RADAR)
01:28PM -15.0770 132.0010 159° South 459 528 33,000  Level FlightAware
01:29PM -15.1690 132.0360 160° South 466 536 33,000  Level FlightAware
01:29PM -15.2490 132.0680 159° South 466 536 33,000 -120 Level FlightAware
01:30PM -15.3003 132.0859 159° South 457 526 32,900  Descending Aus ATC (RADAR)
01:30PM -15.3300 132.0990 159° South 465 535 33,000 60 Climbing FlightAware
01:31PM -15.4390 132.1420 159° South 467 537 33,000  Level FlightAware
01:32PM -15.5200 132.1740 159° South 467 537 33,000 -120 Level FlightAware
01:32PM -15.5953 132.2014 159° South 469 540 32,900  Descending Aus ATC (RADAR)
01:32PM -15.6130 132.2100 159° South 468 539 33,000 60 Climbing FlightAware
01:33PM -15.7040 132.2450 160° South 469 540 33,000  Level FlightAware
01:34PM -15.7850 132.2770 159° South 471 542 33,000 -120 Level FlightAware
01:34PM -15.8580 132.3052 159° South 464 534 32,900  Descending Aus ATC (RADAR)
01:34PM -15.8520 132.3040 159° South 476 548 33,000 120 Climbing FlightAware
01:35PM -15.9400 132.3370 160° South 482 555 33,000 -120 Level FlightAware
01:35PM -15.9946 132.3595 160° South 476 548 32,900  Descending Aus ATC (RADAR)
01:36PM -16.0310 132.3730 160° South 483 556 33,000  Climbing FlightAware
01:36PM -16.1313 132.4117 160° South 476 548 32,900  Descending Aus ATC (RADAR)
01:37PM -16.1370 132.4150 160° South 483 556 33,000 120 Climbing FlightAware
01:37PM -16.2240 132.4490 159° South 482 555 33,000 -120 Level FlightAware
01:37PM -16.2670 132.4676 159° South 478 550 32,900  Descending Aus ATC (RADAR)
01:38PM -16.3110 132.4830 159° South 481 554 33,000  Climbing FlightAware
01:38PM -16.3917 132.5173 159° South 474 545 32,900  Descending Aus ATC (RADAR)
01:39PM -16.4030 132.5200 159° South 480 552 33,000 120 Climbing FlightAware
01:39PM -16.4870 132.5530 159° South 480 552 33,000 -120 Level FlightAware
01:40PM -16.5270 132.5713 159° South 477 549 32,900  Descending Aus ATC (RADAR)
01:40PM -16.5710 132.5860 159° South 480 552 33,000  Climbing FlightAware
01:41PM -16.6622 132.6243 159° South 473 544 32,900  Descending Aus ATC (RADAR)
01:41PM -16.6580 132.6200 159° South 479 551 33,000 120 Climbing FlightAware
01:41PM -16.7440 132.6540 159° South 479 551 33,000 -120 Level FlightAware
01:42PM -16.7868 132.6735 159° South 475 547 32,900  Descending Aus ATC (RADAR)
01:42PM -16.8420 132.6930 159° South 479 551 33,000 60 Climbing FlightAware
01:43PM -16.9260 132.7260 159° South 479 551 33,000 -180 Level FlightAware
01:43PM -16.9323 132.7311 159° South 475 547 32,900  Descending Aus ATC (RADAR)
01:44PM -17.0170 132.7590 161° South 478 550 33,000 60 Climbing FlightAware
01:44PM -17.0990 132.7910 160° South 479 551 33,000 -120 Level FlightAware
01:45PM -17.1915 132.8322 160° South 472 543 32,900  Descending Aus ATC (RADAR)
01:45PM -17.2170 132.8360 160° South 478 550 33,000 60 Climbing FlightAware
01:46PM -17.2990 132.8670 160° South 479 551 33,000 -120 Level FlightAware
01:46PM -17.3792 132.9007 160° South 472 543 32,900  Descending Aus ATC (RADAR)
01:47PM -17.3930 132.9020 160° South 479 551 33,000 120 Climbing FlightAware
01:47PM -17.4760 132.9340 160° South 480 552 33,000 60 Level FlightAware
01:47PM -17.5154 132.9648 160° South 481 554 33,100  Climbing Aus ATC (RADAR)
01:48PM -17.5730 132.9710 160° South 480 552 33,000  Descending FlightAware
01:49PM -17.6501 133.0074 160° South 477 549 33,100  Climbing Aus ATC (RADAR)
01:49PM -17.6560 133.0020 160° South 480 552 33,000 -180 Descending FlightAware
01:49PM -17.7400 133.0340 160° South 480 552 33,000  Level FlightAware
01:50PM -17.8330 133.0690 160° South 479 551 33,000  Level FlightAware
01:51PM -17.9160 133.1010 160° South 478 550 33,000 120 Level FlightAware
01:51PM -17.9221 133.1049 160° South 461 531 33,100  Climbing Aus ATC (RADAR)
01:51PM -18.0100 133.1370 160° South 479 551 33,000 -120 Descending FlightAware
01:52PM -18.0960 133.1690 161° South 478 550 33,000  Level FlightAware
01:53PM -18.1860 133.2040 160° South 478 550 33,000  Level FlightAware
01:54PM -18.3030 133.2490 160° South 478 550 33,000  Level FlightAware
01:55PM -18.4060 133.2890 160° South 478 550 33,000  Level FlightAware
01:55PM -18.4930 133.3220 160° South 479 551 33,000  Level FlightAware
01:56PM -18.5604 133.3532 170° South 33,000  Level Aus ATC (Calculated)
01:56PM -18.5920 133.3590 160° South 478 550 33,000  Level FlightAware
01:57PM -18.6780 133.3920 160° South 477 549 33,000  Level FlightAware
01:58PM -18.7700 133.4280 160° South 477 549 33,000  Level FlightAware
01:58PM -18.8550 133.4600 160° South 479 551 33,000  Level FlightAware
01:59PM -18.9370 133.4920 160° South 480 552 33,000  Level FlightAware
02:00PM -19.0360 133.5300 160° South 482 555 33,000  Level FlightAware
02:00PM -19.1170 133.5610 160° South 483 556 33,000  Level FlightAware
02:01PM -19.2234 133.6089 318° Northwest 33,000  Level Aus ATC (Calculated)
02:01PM -19.2120 133.5980 160° South 484 557 33,000  Level FlightAware
02:02PM -19.2950 133.6300 160° South 484 557 33,000  Level FlightAware
02:02PM -19.4024 133.6783 327° Northwest 33,000  Level Aus ATC (Calculated)
02:02PM -19.3800 133.6630 160° South 483 556 33,000  Level FlightAware
02:03PM -19.5786 133.7468 337° Northwest 33,000  Level Aus ATC (Calculated)
02:03PM -19.4770 133.7010 160° South 483 556 33,000  Level FlightAware
02:04PM -19.5620 133.7340 160° South 483 556 33,000  Level FlightAware
02:05PM -19.6460 133.7660 160° South 481 554 33,000  Level FlightAware
02:05PM -19.7370 133.8020 160° South 481 554 33,000  Level FlightAware
02:06PM -19.9254 133.8820 336° Northwest 33,000  Level Aus ATC (Calculated)
02:06PM -19.8440 133.8430 160° South 481 554 33,000  Level FlightAware
02:07PM -19.9480 133.8840 160° South 481 554 33,000  Level FlightAware
02:08PM -20.0310 133.9170 160° South 484 557 33,000  Level FlightAware
02:08PM -20.1773 133.9807 335° Northwest 33,000  Level Aus ATC (Calculated)
02:08PM -20.1160 133.9500 160° South 487 560 33,000 420 Level FlightAware
02:08PM -20.2593 134.0129 333° Northwest 33,000 780 Level Aus ATC (Calculated)
02:09PM -20.2130 133.9880 160° South 484 557 33,600 900 Climbing FlightAware
02:10PM -20.2960 134.0200 160° South 484 557 34,200 720 Climbing FlightAware
02:10PM -20.3900 134.0570 160° South 484 557 34,700 540 Climbing FlightAware
02:11PM -20.4740 134.0900 160° South 483 556 35,000 180 Climbing FlightAware
02:12PM -20.5690 134.1280 159° South 479 551 35,000  Level FlightAware
02:12PM -20.6540 134.1610 160° South 481 554 35,000  Level FlightAware
02:13PM -20.8284 134.2373 336° Northwest 33,000  Descending Aus ATC (Calculated)
02:13PM -20.7380 134.1940 160° South 480 552 35,000 2,520 Climbing FlightAware
02:14PM -20.8310 134.2310 160° South 479 551 35,000  Level FlightAware
02:15PM -20.9130 134.2640 159° South 483 556 35,000  Level FlightAware
02:15PM -21.0000 134.2980 160° South 486 559 35,000  Level FlightAware
02:16PM -21.0830 134.3310 160° South 488 562 35,000  Level FlightAware
02:16PM -21.2125 134.3898 330° Northwest 33,000  Descending Aus ATC (Calculated)
02:17PM -21.1810 134.3700 160° South 490 564 35,000 1,500 Climbing FlightAware
02:18PM -21.2940 134.4150 160° South 488 562 35,100  Climbing FlightAware
02:18PM -21.4339 134.4781 332° Northwest 33,000 -180 Descending Aus ATC (Calculated)
02:18PM -21.3920 134.4540 160° South 488 562 35,000 3,060 Climbing FlightAware
02:19PM -21.4640 134.4820 160° South 487 560 35,000  Level FlightAware
02:19PM -21.5780 134.5357 304° West 33,000  Descending Aus ATC (Calculated)
02:20PM -21.5720 134.5260 159° South 485 558 35,000 1,680 Climbing FlightAware
02:20PM -21.6550 134.5590 159° South 484 557 35,000  Level FlightAware
02:21PM -21.7400 134.5930 160° South 485 558 35,000  Level FlightAware
02:22PM -21.8340 134.6310 159° South 487 560 35,000  Level FlightAware
02:22PM -21.9200 134.6650 160° South 489 563 35,000  Level FlightAware
02:23PM -22.0030 134.6990 159° South 490 564 35,000  Level FlightAware
02:23PM -22.0743 134.7351 174° South 33,000  Descending Aus ATC (Calculated)
02:24PM -22.1010 134.7380 160° South 490 564 35,000 1,500 Climbing FlightAware
02:25PM -22.1820 134.7710 160° South 488 562 35,000  Level FlightAware
02:25PM -22.2690 134.8060 160° South 487 560 35,000  Level FlightAware
02:26PM -22.3650 134.8450 159° South 484 557 35,000  Level FlightAware
02:27PM -22.4510 134.8790 160° South 482 555 35,000  Level FlightAware
02:27PM -22.5410 134.9160 159° South 482 555 35,000  Level FlightAware
02:28PM -22.6220 134.9490 159° South 483 556 35,000  Level FlightAware
02:28PM -22.7441 135.0065 329° Northwest 33,000  Descending Aus ATC (Calculated)
02:29PM -22.7100 134.9840 159° South 483 556 35,000 1,500 Climbing FlightAware
02:30PM -22.8140 135.0270 159° South 482 555 35,000  Level FlightAware
02:30PM -22.8990 135.0610 160° South 483 556 35,000  Level FlightAware
02:31PM -22.9850 135.0970 159° South 484 557 35,000  Level FlightAware
02:32PM -23.0680 135.1300 160° South 485 558 35,000  Level FlightAware
02:32PM -23.1640 135.1700 159° South 486 559 35,000  Level FlightAware
02:33PM -23.2540 135.2070 159° South 487 560 35,000  Level FlightAware
02:33PM -23.3611 135.2591 328° Northwest 33,000  Descending Aus ATC (Calculated)
02:34PM -23.3300 135.2380 159° South 488 562 35,000 1,680 Climbing FlightAware
02:34PM -23.4250 135.2770 159° South 489 563 35,000  Level FlightAware
02:35PM -23.5200 135.3160 159° South 488 562 35,000  Level FlightAware
02:36PM -23.5930 135.3460 159° South 488 562 35,000  Level FlightAware
02:37PM -23.6990 135.3900 159° South 485 558 35,000  Level FlightAware
02:37PM -23.7860 135.4260 159° South 485 558 35,000  Level FlightAware
02:38PM -23.8830 135.4660 159° South 484 557 35,000  Level FlightAware
02:38PM -23.9862 135.5176 322° Northwest 33,000  Descending Aus ATC (Calculated)
02:39PM -23.9670 135.5010 159° South 484 557 35,000 1,800 Climbing FlightAware
02:39PM -24.0490 135.5350 159° South 486 559 35,000  Level FlightAware
02:40PM -24.1320 135.5700 159° South 488 562 35,000  Level FlightAware
02:41PM -24.2280 135.6090 160° South 492 566 35,000  Level FlightAware
02:41PM -24.3140 135.6450 159° South 494 568 35,000  Level FlightAware
02:42PM -24.4120 135.6870 159° South 496 571 35,000  Level FlightAware
02:43PM -24.4770 135.7140 159° South 497 572 35,000  Level FlightAware
02:43PM -24.6091 135.7778 330° Northwest 33,000  Descending Aus ATC (Calculated)
02:43PM -24.5650 135.7500 159° South 497 572 35,000 1,800 Climbing FlightAware
02:44PM -24.6920 135.8040 159° South 499 574 35,000  Level FlightAware
02:45PM -24.7850 135.8430 159° South 497 572 35,000  Level FlightAware
02:46PM -24.8830 135.8840 159° South 497 572 35,000  Level FlightAware
02:47PM -24.9840 135.9270 159° South 497 572 35,000  Level FlightAware
02:47PM -25.0560 135.9570 159° South 498 573 35,000  Level FlightAware
02:48PM -25.1550 135.9990 159° South 499 574 35,000  Level FlightAware
02:48PM -25.2671 136.0558 320° Northwest 33,000  Descending Aus ATC (Calculated)
02:49PM -25.2490 136.0390 159° South 499 574 35,000 1,740 Climbing FlightAware
02:49PM -25.3380 136.0770 159° South 500 575 35,000  Level FlightAware
02:50PM -25.4210 136.1120 159° South 498 573 35,000  Level FlightAware
02:51PM -25.5210 136.1540 159° South 497 572 35,000  Level FlightAware
02:51PM -25.6090 136.1920 159° South 496 571 35,000  Level FlightAware
02:52PM -25.7690 136.2700 333° Northwest 33,000  Descending Aus ATC (Calculated)
02:52PM -25.7040 136.2330 159° South 493 567 35,000 2,820 Climbing FlightAware
02:53PM -25.7910 136.2700 159° South 491 565 35,000  Level FlightAware
02:53PM -25.9205 136.3351 331° Northwest 33,000  Descending Aus ATC (Calculated)
02:53PM -25.8690 136.3030 159° South 490 564 35,000 1,920 Climbing FlightAware
02:54PM -25.9680 136.3460 159° South 489 563 35,000  Level FlightAware
02:55PM -26.0530 136.3830 159° South 490 564 35,000  Level FlightAware
02:56PM -26.1710 136.4330 159° South 492 566 35,000  Level FlightAware
02:57PM -26.2650 136.4740 159° South 493 567 35,000  Level FlightAware
02:57PM -26.3500 136.5110 159° South 494 568 35,000  Level FlightAware
02:58PM -26.4470 136.5530 159° South 494 568 35,000  Level FlightAware
02:58PM -26.5807 136.6207 328° Northwest 33,000  Descending Aus ATC (Calculated)
02:59PM -26.5470 136.5970 159° South 496 571 35,000 1,500 Climbing FlightAware
02:59PM -26.6350 136.6340 159° South 497 572 35,000  Level FlightAware
03:00PM -26.7240 136.6750 158° South 497 572 35,000  Level FlightAware
03:01PM -26.7960 136.7070 158° South 497 572 35,000  Level FlightAware
03:02PM -26.8690 136.7400 158° South 497 572 35,000  Level FlightAware
03:02PM -26.9590 136.7810 158° South 497 572 35,000  Level FlightAware
03:03PM -27.0320 136.8140 158° South 497 572 35,000  Level FlightAware
03:03PM -27.2105 136.8964 338° Northwest 33,000  Descending Aus ATC (Calculated)
03:04PM -27.1040 136.8470 158° South 497 572 35,000 1,620 Climbing FlightAware
03:04PM -27.1770 136.8800 158° South 497 572 35,000  Level FlightAware
03:05PM -27.2490 136.9130 158° South 497 572 35,000  Level FlightAware
03:06PM -27.3400 136.9540 158° South 497 572 35,000  Level FlightAware
03:07PM -27.4120 136.9870 158° South 497 572 35,000  Level FlightAware
03:07PM -27.4850 137.0200 158° South 497 572 35,000  Level FlightAware
03:08PM -27.5570 137.0530 158° South 497 572 35,000  Level FlightAware
03:08PM -27.8476 137.1787 339° North 33,000  Descending Aus ATC (Calculated)
03:09PM -27.6300 137.0860 158° South 497 572 35,000 1,620 Climbing FlightAware
03:09PM -27.7200 137.1270 158° South 497 572 35,000  Level FlightAware
03:10PM -27.7930 137.1610 158° South 497 572 35,000  Level FlightAware
03:11PM -27.8650 137.1940 158° South 497 572 35,000  Level FlightAware
03:11PM -27.9380 137.2270 158° South 497 572 35,000  Level FlightAware
03:12PM -28.2786 137.3717 340° North 33,000  Descending Aus ATC (Calculated)
03:12PM -28.0100 137.2600 158° South 497 572 35,000 1,620 Climbing FlightAware
03:13PM -28.1010 137.3010 158° South 497 572 35,000  Level FlightAware
03:13PM -28.4240 137.4372 340° North 33,000  Descending Aus ATC (Calculated)
03:14PM -28.1730 137.3350 158° South 497 572 35,000 1,800 Climbing FlightAware
03:14PM -28.4921 137.4680 340° North 33,000  Descending Aus ATC (Calculated)
03:14PM -28.2460 137.3680 158° South 497 572 35,000 60 Climbing FlightAware
03:16PM -28.7561 137.5876 155° Southeast 33,000  Descending Aus ATC (Calculated)
03:18PM -28.9644 137.7382 148° Southeast  Level Estimated
03:19PM -29.0779 137.8207 148° Southeast  Level Estimated
03:19PM -29.1600 137.7719 154° Southeast 33,000  Level Aus ATC (Calculated)
03:21PM -29.3634 137.9225 147° Southeast  Level Estimated
03:22PM -29.4763 138.0065 147° Southeast  Level Estimated
03:23PM -29.5891 138.0906 147° Southeast  Level Estimated
03:24PM -29.7019 138.1749 147° Southeast  Level Estimated
03:24PM -29.7906 138.0627 152° Southeast 33,000  Level Aus ATC (Calculated)
03:26PM -29.9937 138.2194 146° Southeast  Level Estimated
03:27PM -30.1054 138.3059 146° Southeast  Level Estimated
03:27PM -30.1956 138.2515 149° Southeast 33,000  Level Aus ATC (Calculated)
03:29PM -30.3990 138.4130 146° Southeast  Level Estimated
03:29PM -30.5245 138.4061 143° Southeast 33,000  Level Aus ATC (Calculated)
03:31PM -30.7246 138.5689 145° Southeast  Level Estimated
03:31PM -30.7369 138.6220 148° Southeast 33,000  Level Aus ATC (Calculated)
03:32PM -30.8348 138.6588 145° Southeast  Level Estimated
03:33PM -30.9448 138.7489 145° Southeast  Level Estimated
03:34PM -31.0475 138.8748 145° Southeast  Level Estimated
03:34PM -30.9258 138.7600 145° Southeast 476 548 35,200  Level Aus ATC (RADAR)
03:35PM -31.0128 138.8643 134° Southeast 513 590 35,200  Level Aus ATC (RADAR)
03:36PM -31.1532 139.0066 139° Southeast 517 595 35,200  Level Aus ATC (RADAR)
03:37PM -31.2663 139.1230 139° Southeast 507 583 35,200  Level Aus ATC (RADAR)
03:38PM -31.3796 139.2394 139° Southeast 505 581 35,200  Level Aus ATC (RADAR)
03:39PM -31.4936 139.3606 138° Southeast 512 589 35,200  Level Aus ATC (RADAR)
03:40PM -31.6070 139.4810 138° Southeast 509 586 35,200  Level Aus ATC (RADAR)
03:41PM -31.7208 139.6018 138° Southeast 511 588 35,200  Level Aus ATC (RADAR)
03:42PM -31.8343 139.7231 138° Southeast 510 587 35,200  Level Aus ATC (RADAR)
03:43PM -31.9470 139.8419 138° Southeast 508 585 35,200 -60 Level Aus ATC (RADAR)
03:45PM -32.0597 139.9630 138° Southeast 507 583 35,100  Descending Aus ATC (RADAR)
03:46PM -32.1724 140.0847 138° Southeast 509 586 35,200  Climbing Aus ATC (RADAR)
03:48PM -32.3962 140.3253 138° Southeast 500 575 35,200 -120 Level Aus ATC (RADAR)
03:48PM -32.4540 140.3870 138° Southeast 503 579 35,000 -180 Descending FlightAware
03:49PM -32.5080 140.4460 137° Southeast 501 577 35,000 300 Level FlightAware
03:49PM -32.5239 140.4639 138° Southeast 499 574 35,200  Climbing Aus ATC (RADAR)
03:50PM -32.5820 140.5280 137° Southeast 500 575 35,000 -120 Descending FlightAware
03:50PM -32.6256 140.5750 137° Southeast 493 567 35,100  Climbing Aus ATC (RADAR)
03:51PM -32.6630 140.6160 137° Southeast 498 573 35,000 60 Descending FlightAware
03:51PM -32.7361 140.6954 137° Southeast 496 571 35,200  Climbing Aus ATC (RADAR)
03:52PM -32.7980 140.7650 137° Southeast 490 564 35,000  Descending FlightAware
03:52PM -32.8371 140.8066 137° Southeast 497 572 35,200  Climbing Aus ATC (RADAR)
03:53PM -32.8530 140.8280 137° Southeast 490 564 35,000 -120 Descending FlightAware
03:53PM -32.9373 140.9165 137° Southeast 492 566 35,100  Climbing Aus ATC (RADAR)
03:53PM -32.9230 140.9080 137° Southeast 490 564 35,000 -120 Descending FlightAware
03:54PM -32.9780 140.9720 136° Southeast 490 564 35,000  Level FlightAware
03:55PM -33.0330 141.0360 136° Southeast 490 564 35,000 60 Level FlightAware
03:55PM -33.1450 141.1468 136° Southeast 490 564 35,100  Climbing Aus ATC (RADAR)
03:55PM -33.0890 141.1000 136° Southeast 490 564 35,000 -180 Descending FlightAware
03:56PM -33.1440 141.1640 136° Southeast 490 564 35,000 180 Level FlightAware
03:56PM -33.2520 141.2656 136° Southeast 486 559 35,200  Climbing Aus ATC (RADAR)
03:57PM -33.2140 141.2430 136° Southeast 490 564 35,000  Descending FlightAware
03:57PM -33.3525 141.3774 136° Southeast 491 565 35,200  Climbing Aus ATC (RADAR)
03:58PM -33.2690 141.3080 136° Southeast 490 564 35,000 -240 Descending FlightAware
03:58PM -33.3250 141.3720 136° Southeast 490 564 35,000 180 Level FlightAware
03:58PM -33.4684 141.5073 136° Southeast 489 563 35,200  Climbing Aus ATC (RADAR)
03:59PM -33.3800 141.4360 136° Southeast 490 564 35,000 -240 Descending FlightAware
04:00PM -33.4350 141.5000 136° Southeast 490 564 35,000 240 Level FlightAware
04:00PM -33.5758 141.6274 136° Southeast 488 562 35,200  Climbing Aus ATC (RADAR)
04:00PM -33.5050 141.5800 136° Southeast 490 564 35,000 -180 Descending FlightAware
04:01PM -33.5600 141.6440 136° Southeast 490 564 35,000 60 Level FlightAware
04:03PM -33.7972 141.8767 136° Southeast 491 565 35,200 60 Climbing Aus ATC (RADAR)
04:03PM -33.8290 141.9132 136° Southeast 486 559 35,200  Level Aus ATC (RADAR)
04:05PM -34.1127 142.2368 137° Southeast 482 555 35,200 -120 Level Aus ATC (RADAR)
04:06PM -34.1650 142.2970 137° Southeast 472 543 35,000 -240 Descending FlightAware
04:06PM -34.2290 142.3700 137° Southeast 471 542 35,000  Level FlightAware
04:07PM -34.3040 142.4560 137° Southeast 472 543 35,000 180 Level FlightAware
04:07PM -34.3432 142.5032 137° Southeast 475 547 35,200  Climbing Aus ATC (RADAR)
04:08PM -34.3920 142.5580 137° Southeast 471 542 35,000  Descending FlightAware
04:09PM -34.4468 142.6224 137° Southeast 473 544 35,200  Climbing Aus ATC (RADAR)
04:09PM -34.4560 142.6330 137° Southeast 471 542 35,000 -240 Descending FlightAware
04:09PM -34.5250 142.7130 136° Southeast 471 542 35,000  Level FlightAware
04:10PM -34.5820 142.7790 136° Southeast 470 541 35,000 180 Level FlightAware
04:11PM -34.6528 142.8622 136° Southeast 472 543 35,300 120 Climbing Aus ATC (RADAR)
04:11PM -34.6610 142.8710 136° Southeast 472 543 35,100 -420 Descending FlightAware
04:12PM -34.7220 142.9420 136° Southeast 468 539 35,000 60 Descending FlightAware
04:12PM -34.7544 142.9807 136° Southeast 464 534 35,200  Climbing Aus ATC (RADAR)
04:12PM -34.7860 143.0180 136° Southeast 459 528 35,000  Descending FlightAware
04:13PM -34.8472 143.0896 136° Southeast 462 532 35,200  Climbing Aus ATC (RADAR)
04:13PM -34.8540 143.0980 136° Southeast 457 526 35,000 -240 Descending FlightAware
04:14PM -34.9190 143.1730 137° Southeast 457 526 35,000  Level FlightAware
04:14PM -34.9700 143.2280 139° Southeast 459 528 35,000  Level FlightAware
04:15PM -35.0506 143.2956 139° Southeast 453 521 35,000  Level Aus ATC (RADAR)
04:15PM -35.0670 143.3060 139° Southeast 455 524 35,000  Level FlightAware
04:16PM -35.1672 143.3832 139° Southeast 454 522 35,000  Level Aus ATC (RADAR)
04:18PM -35.3835 143.5466 148° Southeast 455 524 35,100  Climbing Aus ATC (RADAR)
04:18PM -35.4102 143.5670 148° Southeast 454 522 35,000 -120 Descending Aus ATC (RADAR)
04:19PM -35.5167 143.6484 148° Southeast 453 521 35,000  Level Aus ATC (RADAR)
04:21PM -35.6594 143.7541 149° Southeast 447 514 35,000  Level Aus ATC (RADAR)
04:22PM -35.7741 143.8431 148° Southeast 450 518 35,000  Level Aus ATC (RADAR)
04:23PM -35.9075 143.9468 148° Southeast 454 522 35,000  Level Aus ATC (RADAR)
04:24PM -36.0051 144.0224 148° Southeast 451 519 35,100 -300 Climbing Aus ATC (RADAR)
04:25PM -36.1207 144.1123 148° Southeast 451 519 34,500 -1,320 Descending Aus ATC (RADAR)
04:26PM -36.2432 144.2077 148° Southeast 437 503 32,200 -2,160 Descending Aus ATC (RADAR)
04:27PM -36.3551 144.2947 148° Southeast 435 501 29,800 -2,280 Descending Aus ATC (RADAR)
04:28PM -36.4578 144.3752 148° Southeast 429 494 27,600 -2,100 Descending Aus ATC (RADAR)
04:29PM -36.5653 144.4602 148° Southeast 412 474 25,500 -1,920 Descending Aus ATC (RADAR)
04:29PM -36.5680 144.4630 148° Southeast 403 464 25,300 -2,160 Descending FlightAware
04:30PM -36.6310 144.5130 148° Southeast 402 463 23,800 -2,160 Descending FlightAware
04:31PM -36.7000 144.5680 147° Southeast 386 444 22,300 -2,220 Descending FlightAware
04:31PM -36.7565 144.6119 147° Southeast 372 428 21,000 -2,100 Descending Aus ATC (RADAR)
04:31PM -36.7560 144.6120 147° Southeast 369 425 20,900 -2,040 Descending FlightAware
04:32PM -36.8190 144.6550 151° Southeast 348 400 19,400 -2,340 Descending FlightAware
04:34PM -37.0192 144.6993 151° Southeast 331 381 14,600 -2,340 Descending Aus ATC (RADAR)
04:34PM -37.0418 144.7045 170° South 329 379 14,100 -2,040 Descending Aus ATC (RADAR)
04:35PM -37.1373 144.7252 170° South 317 365 11,900 -1,620 Descending Aus ATC (RADAR)
04:37PM -37.2466 144.7487 170° South 283 326 10,200 -1,200 Descending Aus ATC (RADAR)
04:37PM -37.2710 144.7540 170° South 249 287 9,900 -1,140 Descending FlightAware
04:38PM -37.3050 144.7610 171° South 248 285 9,200 -1,200 Descending FlightAware
04:38PM -37.3570 144.7720 170° South 249 287 8,400 -1,140 Descending FlightAware
04:39PM -37.3900 144.7804 170° South 254 292 7,900 -1,020 Descending Aus ATC (RADAR)
04:40PM -37.4633 144.7991 169° South 247 284 6,900 -1,020 Descending Aus ATC (RADAR)
04:41PM -37.5366 144.8149 170° South 241 277 5,700 -1,020 Descending Aus ATC (RADAR)
04:42PM -37.5640 144.8500 170° South 258 297 5,200 -780 Descending FlightAware
04:42PM -37.5655 144.8925 170° South 250 288 4,900 -960 Descending Aus ATC (RADAR)
04:42PM -37.5660 144.9130 170° South 252 290 4,500 -1,080 Descending FlightAware
04:43PM -37.5670 144.9270 95° East 250 288 4,400 -600 Descending FlightAware
04:43PM -37.5690 144.9670 94° East 233 268 4,100 -600 Descending FlightAware
04:43PM -37.5710 145.0010 94° East 221 254 3,900 -780 Descending FlightAware
04:44PM -37.5750 145.0200 105° East 201 231 3,600 -840 Descending FlightAware
04:44PM -37.5850 145.0300 142° Southeast 185 213 3,500 -420 Descending FlightAware
04:44PM -37.5970 145.0330 169° South 165 190 3,400 -420 Descending FlightAware
04:44PM -37.6100 145.0310 187° South 161 185 3,300 -300 Descending FlightAware
04:45PM -37.6270 145.0300 183° South 162 186 3,200 -420 Descending FlightAware
04:45PM -37.6493 145.0280 183° South 170 196 3,000 -420 Descending Aus ATC (RADAR)
04:45PM -37.6510 145.0280 183° South 163 188 3,000 -300 Level FlightAware
04:46PM -37.6610 145.0260 189° South 167 192 2,900  Descending FlightAware
04:46PM -37.6680 145.0160 229° Southwest 160 184 3,000 -240 Climbing FlightAware
04:46PM -37.6700 145.0020 260° West 160 184 2,800 -840 Descending FlightAware
04:46PM -37.6696 144.9784 260° West 157 181 2,500 -840 Descending Aus ATC (RADAR)
04:47PM -37.6700 144.9740 260° West 154 177 2,400 -720 Descending FlightAware
04:47PM -37.6680 144.9540 277° West 142 163 2,100 -780 Descending FlightAware
04:47PM -37.6680 144.9410 270° West 134 154 1,900 -840 Descending FlightAware
04:48PM -37.6660 144.9190 277° West 122 140 1,500 -720 Descending FlightAware
04:48PM -37.6660 144.9080 270° West 122 140 1,400 -600 Descending FlightAware
04:48PM -37.6643 144.8866 270° West 122 140 1,100 -720 Descending Aus ATC (RADAR)
04:48PM -37.6650 144.8900 270° West 122 140 1,100 -600 Level FlightAware
04:49PM -37.6640 144.8690 273° West 121 139 800 -660 Descending FlightAware
04:49PM -37.6620 144.8510 278° West 123 142 500 -720 Descending FlightAware